Time;durP1;ratioP1;P1;durP2;ratioP2;P2;SDS_P1;SDS_P2;PMS_P1;PMS_P2;Temp;Humidity;BMP_temperature;BMP_pressure;BME280_temperature;BME280_humidity;BME280_pressure;Samples;Min_cycle;Max_cycle;Signal;HPM_P1;HPM_P2
2022/10/03 00:01:48;;;;;;;10.00;9.00;;;19.00;64.70;;;;;;6230570;23;20522;-82
2022/10/03 00:04:34;;;;;;;11.07;9.75;;;19.00;64.60;;;;;;6183358;23;20161;-81
2022/10/03 00:07:35;;;;;;;11.40;9.90;;;19.00;64.60;;;;;;6208350;23;20246;-81
2022/10/03 00:10:27;;;;;;;11.82;10.05;;;19.00;64.60;;;;;;6209070;23;20269;-81
2022/10/03 00:13:05;;;;;;;12.15;10.10;;;19.00;64.50;;;;;;6229703;23;20126;-81
2022/10/03 00:15:36;;;;;;;10.35;9.32;;;19.00;64.60;;;;;;6229579;23;20157;-81
2022/10/03 00:18:21;;;;;;;11.48;9.77;;;19.00;64.60;;;;;;6205336;23;20146;-83
2022/10/03 00:21:01;;;;;;;10.98;9.73;;;19.00;64.70;;;;;;6205254;23;20160;-81
2022/10/03 00:24:05;;;;;;;11.75;9.82;;;19.00;64.70;;;;;;6183272;23;20146;-81
2022/10/03 00:27:05;;;;;;;10.73;9.63;;;18.90;64.70;;;;;;6187529;23;20149;-82
2022/10/03 00:29:55;;;;;;;9.90;8.90;;;18.90;64.70;;;;;;6232145;23;20193;-82
2022/10/03 00:32:42;;;;;;;11.30;9.80;;;18.90;64.70;;;;;;6186913;23;20157;-82
2022/10/03 00:35:35;;;;;;;11.20;10.02;;;18.90;64.80;;;;;;6229481;23;20186;-81
2022/10/03 00:38:27;;;;;;;11.52;9.90;;;18.90;64.80;;;;;;6208559;23;20169;-82
2022/10/03 00:41:16;;;;;;;11.02;9.80;;;18.90;64.90;;;;;;6229986;23;20661;-81
2022/10/03 00:44:16;;;;;;;11.23;9.80;;;18.90;64.90;;;;;;6230932;23;20130;-82
2022/10/03 00:47:01;;;;;;;10.60;9.40;;;18.90;64.80;;;;;;6211573;23;20150;-82
2022/10/03 00:49:56;;;;;;;11.00;9.77;;;18.90;64.90;;;;;;6204432;23;20181;-81
2022/10/03 00:52:45;;;;;;;11.93;9.57;;;18.90;64.90;;;;;;6231654;23;20142;-82
2022/10/03 00:55:41;;;;;;;10.60;9.43;;;18.90;64.90;;;;;;6156887;23;20154;-81
2022/10/03 00:58:35;;;;;;;10.80;9.63;;;18.90;64.70;;;;;;6184437;23;20174;-81
2022/10/03 01:01:24;;;;;;;10.82;9.73;;;18.90;64.90;;;;;;6230565;23;20142;-81
2022/10/03 01:04:27;;;;;;;10.50;9.40;;;18.90;65.00;;;;;;6181251;23;20142;-81
2022/10/03 01:07:28;;;;;;;11.68;9.82;;;18.90;65.00;;;;;;6230480;23;20157;-82
2022/10/03 01:10:14;;;;;;;10.57;9.45;;;18.90;64.90;;;;;;6208571;23;20185;-83
2022/10/03 01:13:07;;;;;;;10.77;9.68;;;18.90;65.00;;;;;;6179713;23;20180;-81
2022/10/03 01:15:59;;;;;;;11.65;10.15;;;18.90;65.10;;;;;;6185851;23;20337;-82
2022/10/03 01:18:38;;;;;;;11.15;9.98;;;19.00;65.10;;;;;;6229510;23;20130;-82
2022/10/03 01:21:28;;;;;;;10.68;9.10;;;18.90;65.00;;;;;;6155687;23;20154;-81
2022/10/03 01:24:11;;;;;;;10.80;9.60;;;18.90;65.10;;;;;;6230058;23;20525;-81
2022/10/03 01:27:00;;;;;;;10.98;9.88;;;18.90;65.10;;;;;;6180797;23;20175;-82
2022/10/03 01:32:42;;;;;;;11.05;9.63;;;18.80;65.10;;;;;;6230591;23;20138;-82
2022/10/03 01:35:23;;;;;;;10.50;9.40;;;18.80;65.00;;;;;;6204147;23;20141;-82
2022/10/03 01:38:00;;;;;;;10.32;9.20;;;18.90;65.10;;;;;;6131908;23;20157;-82
2022/10/03 01:40:34;;;;;;;11.07;9.70;;;18.80;64.90;;;;;;6157150;23;20200;-82
2022/10/03 01:43:20;;;;;;;11.90;9.68;;;18.80;65.00;;;;;;6230953;23;20198;-82
2022/10/03 01:46:19;;;;;;;11.55;10.02;;;18.90;65.20;;;;;;6206451;23;20161;-81
2022/10/03 01:48:58;;;;;;;10.60;9.50;;;18.80;65.10;;;;;;6231097;23;20134;-81
2022/10/03 01:52:00;;;;;;;10.40;9.30;;;18.80;65.10;;;;;;6231129;23;20150;-82
2022/10/03 01:55:00;;;;;;;12.13;9.63;;;18.80;65.00;;;;;;6231124;23;20153;-82
2022/10/03 01:58:00;;;;;;;10.73;9.52;;;18.80;65.20;;;;;;6231970;23;20139;-81
2022/10/03 02:00:44;;;;;;;12.05;9.90;;;18.80;65.20;;;;;;6230300;23;20149;-82
2022/10/03 02:03:30;;;;;;;10.82;9.70;;;18.80;65.20;;;;;;6160200;23;20344;-82
2022/10/03 02:06:31;;;;;;;10.60;9.50;;;18.80;65.00;;;;;;6232024;23;20135;-81
2022/10/03 02:09:09;;;;;;;10.60;9.25;;;18.80;65.20;;;;;;6232217;23;20131;-82
2022/10/03 02:11:56;;;;;;;10.48;9.38;;;18.80;65.30;;;;;;6230858;23;20153;-82
2022/10/03 02:14:41;;;;;;;10.60;9.48;;;18.80;65.20;;;;;;6186464;23;20198;-82
2022/10/03 02:17:19;;;;;;;10.73;9.63;;;18.80;65.20;;;;;;6208443;23;20570;-82
2022/10/03 02:19:56;;;;;;;10.38;9.27;;;18.80;65.30;;;;;;6230440;23;20213;-81
2022/10/03 02:22:34;;;;;;;10.63;9.48;;;18.80;65.10;;;;;;6156028;23;20149;-82
2022/10/03 02:25:18;;;;;;;11.38;9.75;;;18.80;65.20;;;;;;6157469;23;20185;-82
2022/10/03 02:28:21;;;;;;;10.52;9.20;;;18.80;65.20;;;;;;6182628;23;20153;-82
2022/10/03 02:31:12;;;;;;;11.30;9.48;;;18.80;65.20;;;;;;6232022;23;20177;-82
2022/10/03 02:34:12;;;;;;;10.65;9.55;;;18.80;65.30;;;;;;6230554;23;20640;-81
2022/10/03 02:36:53;;;;;;;9.90;8.90;;;18.80;65.30;;;;;;6231735;23;20133;-82
2022/10/03 02:39:29;;;;;;;10.25;9.25;;;18.80;65.30;;;;;;6182809;23;20137;-81
2022/10/03 02:42:32;;;;;;;9.93;8.90;;;18.80;65.30;;;;;;6205594;23;20142;-82
2022/10/03 02:45:28;;;;;;;10.77;9.07;;;18.80;65.40;;;;;;6230658;23;20138;-82
2022/10/03 02:48:32;;;;;;;10.73;9.63;;;18.80;65.30;;;;;;6137981;23;20245;-81
2022/10/03 02:51:33;;;;;;;11.00;9.27;;;18.80;65.30;;;;;;6230351;23;20177;-81
2022/10/03 02:54:43;;;;;;;9.88;8.85;;;18.80;65.30;;;;;;6229359;23;20141;-83
2022/10/03 02:57:43;;;;;;;10.40;8.85;;;18.80;65.30;;;;;;6230597;23;20134;-81
2022/10/03 03:00:43;;;;;;;10.38;9.27;;;18.80;65.30;;;;;;6231859;23;20145;-82
2022/10/03 03:03:28;;;;;;;11.40;9.70;;;18.80;65.40;;;;;;6230594;23;20149;-83
2022/10/03 03:06:16;;;;;;;9.73;8.73;;;18.80;65.40;;;;;;6205573;23;20172;-81
2022/10/03 03:09:13;;;;;;;9.68;8.40;;;18.80;65.40;;;;;;6205649;23;20217;-82
2022/10/03 03:11:58;;;;;;;10.02;8.93;;;18.80;65.30;;;;;;6230487;23;20157;-82
2022/10/03 03:14:47;;;;;;;9.85;8.80;;;18.80;65.30;;;;;;6159593;23;20225;-82
2022/10/03 03:17:55;;;;;;;9.82;8.82;;;18.80;65.40;;;;;;6182670;23;20189;-83
2022/10/03 03:20:32;;;;;;;10.15;9.05;;;18.80;65.30;;;;;;6229865;23;20209;-82
2022/10/03 03:23:38;;;;;;;10.55;9.45;;;18.70;65.40;;;;;;6230275;23;20136;-82
2022/10/03 03:26:30;;;;;;;10.40;9.20;;;18.80;65.30;;;;;;6214206;23;20134;-82
2022/10/03 03:29:34;;;;;;;10.52;8.80;;;18.80;65.30;;;;;;6230568;23;20197;-81
2022/10/03 03:32:35;;;;;;;9.90;8.73;;;18.80;65.40;;;;;;6184337;23;20192;-82
2022/10/03 03:35:35;;;;;;;9.70;8.70;;;18.80;65.30;;;;;;6232692;23;20145;-82
2022/10/03 03:38:19;;;;;;;10.23;8.88;;;18.70;65.40;;;;;;6234338;23;20146;-82
2022/10/03 03:41:02;;;;;;;11.27;9.52;;;18.80;65.40;;;;;;6160682;23;20157;-82
2022/10/03 03:43:36;;;;;;;9.52;8.60;;;18.80;65.30;;;;;;6209516;23;20134;-82
2022/10/03 03:46:28;;;;;;;10.82;8.93;;;18.70;65.30;;;;;;6211097;23;20206;-82
2022/10/03 03:49:25;;;;;;;10.20;8.90;;;18.80;65.40;;;;;;6189816;23;20138;-82
2022/10/03 03:52:10;;;;;;;10.07;8.98;;;18.70;65.40;;;;;;6234021;23;20166;-83
2022/10/03 03:54:53;;;;;;;10.32;8.98;;;18.70;65.40;;;;;;6233428;23;20134;-82
2022/10/03 03:57:46;;;;;;;10.35;9.10;;;18.70;65.30;;;;;;6160399;23;20150;-81
2022/10/03 04:00:19;;;;;;;10.68;9.57;;;18.70;65.40;;;;;;6081811;23;20171;-83
2022/10/03 04:02:52;;;;;;;10.00;8.70;;;18.80;65.80;;;;;;6096050;23;20158;-82
2022/10/03 04:05:56;;;;;;;9.43;8.43;;;18.70;65.20;;;;;;6095609;23;20179;-81
2022/10/03 04:08:36;;;;;;;9.75;8.75;;;18.70;65.40;;;;;;6143918;23;20205;-82
2022/10/03 04:11:27;;;;;;;10.20;8.82;;;18.70;65.40;;;;;;6122529;23;20191;-82
2022/10/03 04:14:27;;;;;;;10.00;8.95;;;18.70;65.40;;;;;;6078387;23;20255;-82
2022/10/03 04:20:50;;;;;;;10.07;8.98;;;18.70;65.40;;;;;;6167967;23;20617;-83
2022/10/03 04:23:47;;;;;;;10.55;8.65;;;18.80;65.60;;;;;;6119542;23;20170;-82
2022/10/03 04:26:42;;;;;;;10.50;8.82;;;18.70;65.60;;;;;;6188014;23;20280;-82
2022/10/03 04:29:28;;;;;;;9.85;8.85;;;18.80;65.30;;;;;;6188324;23;20289;-83
2022/10/03 04:32:09;;;;;;;10.07;8.95;;;18.70;65.40;;;;;;6230507;23;20161;-82
2022/10/03 04:35:08;;;;;;;10.27;9.27;;;18.80;65.30;;;;;;6229472;23;20138;-81
2022/10/03 04:37:55;;;;;;;9.90;8.88;;;18.80;65.40;;;;;;6229027;23;20138;-82
2022/10/03 04:40:58;;;;;;;10.07;8.75;;;18.80;65.60;;;;;;6203674;23;20161;-82
2022/10/03 04:43:42;;;;;;;10.77;9.32;;;18.80;65.40;;;;;;6161619;23;20153;-82
2022/10/03 04:46:33;;;;;;;10.05;8.90;;;18.70;65.50;;;;;;6203588;23;20145;-81
2022/10/03 04:49:25;;;;;;;9.18;7.97;;;18.80;65.00;;;;;;6208520;23;20127;-82
2022/10/03 04:52:05;;;;;;;10.50;8.90;;;18.70;64.80;;;;;;6187075;23;20157;-82
2022/10/03 04:54:47;;;;;;;9.48;8.48;;;18.70;64.90;;;;;;6228285;23;20193;-82
2022/10/03 04:57:40;;;;;;;9.15;8.23;;;18.70;64.70;;;;;;6205780;23;20162;-82
2022/10/03 05:00:32;;;;;;;10.30;8.82;;;18.70;64.70;;;;;;6203563;23;20161;-82
2022/10/03 05:03:25;;;;;;;9.75;8.60;;;18.80;64.70;;;;;;6178098;23;20161;-82
2022/10/03 05:06:04;;;;;;;9.07;8.18;;;18.70;64.60;;;;;;6202240;23;20146;-82
2022/10/03 05:08:37;;;;;;;8.75;7.53;;;18.70;65.10;;;;;;6230063;23;20148;-82
2022/10/03 05:11:11;;;;;;;8.60;7.70;;;18.80;64.00;;;;;;6179122;23;20169;-82
2022/10/03 05:13:48;;;;;;;8.27;7.45;;;18.80;63.50;;;;;;6201052;23;20192;-82
2022/10/03 05:16:41;;;;;;;7.32;6.63;;;18.80;64.10;;;;;;6179922;23;20142;-82
2022/10/03 05:19:26;;;;;;;7.63;6.55;;;18.80;62.70;;;;;;6228023;23;20185;-82
2022/10/03 05:22:03;;;;;;;7.20;6.50;;;18.70;62.60;;;;;;6181866;23;20134;-82
2022/10/03 05:24:44;;;;;;;7.10;6.40;;;18.80;61.90;;;;;;6209075;23;20232;-82
2022/10/03 05:27:40;;;;;;;7.40;6.70;;;18.80;62.10;;;;;;6207209;23;20161;-83
2022/10/03 05:30:40;;;;;;;7.65;6.95;;;18.80;61.70;;;;;;6179439;23;20219;-82
2022/10/03 05:33:39;;;;;;;6.72;6.03;;;18.80;61.60;;;;;;6226596;23;20146;-82
2022/10/03 05:36:32;;;;;;;7.10;6.40;;;18.80;61.00;;;;;;6228032;23;20181;-82
2022/10/03 05:39:17;;;;;;;7.53;6.82;;;18.90;61.40;;;;;;6137757;23;20165;-82
2022/10/03 05:41:54;;;;;;;7.00;6.28;;;18.90;62.10;;;;;;6160677;23;20164;-82
2022/10/03 05:44:33;;;;;;;7.88;7.13;;;18.90;60.70;;;;;;6157924;23;20481;-82
2022/10/03 05:47:43;;;;;;;6.90;6.25;;;18.90;61.30;;;;;;6155202;23;20635;-82
2022/10/03 05:50:26;;;;;;;7.25;6.55;;;18.90;61.20;;;;;;6177100;23;20178;-82
2022/10/03 05:53:20;;;;;;;7.00;6.30;;;18.90;61.00;;;;;;6148013;23;20154;-82
2022/10/03 05:56:20;;;;;;;6.72;6.03;;;18.90;60.90;;;;;;6209875;23;20157;-82
2022/10/03 05:59:09;;;;;;;6.55;5.95;;;18.90;60.50;;;;;;6234753;23;20179;-82
2022/10/03 06:01:58;;;;;;;6.85;6.15;;;18.90;60.70;;;;;;6207188;23;20219;-82
2022/10/03 06:04:36;;;;;;;6.72;6.10;;;18.90;60.40;;;;;;6210664;23;20251;-83
2022/10/03 06:07:39;;;;;;;6.65;5.90;;;18.90;60.30;;;;;;6210652;23;20181;-83
2022/10/03 06:10:27;;;;;;;6.80;5.97;;;18.90;60.30;;;;;;6190995;23;20542;-85
2022/10/03 06:13:07;;;;;;;7.35;5.57;;;18.90;60.10;;;;;;6206620;23;20165;-81
2022/10/03 06:15:55;;;;;;;7.15;6.45;;;18.90;60.80;;;;;;6207622;23;20165;-82
2022/10/03 06:43:00;;;;;;;;;;;;;;;;;;;;;
2022/10/03 06:53:08;;;;;;;5.30;4.80;;;19.00;59.50;;;;;;6103005;23;20192;-87
2022/10/03 06:59:21;;;;;;;6.00;5.40;;;19.10;59.50;;;;;;6103721;23;20210;-83
2022/10/03 07:02:29;;;;;;;;;;;;;;;;;;;;;
2022/10/03 07:05:25;;;;;;;5.70;5.20;;;19.10;59.50;;;;;;6018934;23;20159;-84
2022/10/03 07:08:44;;;;;;;;;;;;;;;;;;;;;
2022/10/03 07:11:46;;;;;;;5.25;4.75;;;19.10;59.20;;;;;;6016205;23;20253;-83
2022/10/03 07:14:43;;;;;;;4.88;4.38;;;19.10;59.20;;;;;;5989175;23;20161;-83
2022/10/03 07:17:33;;;;;;;4.55;4.15;;;19.10;59.30;;;;;;5992034;23;20447;-83
2022/10/03 07:20:30;;;;;;;4.18;3.83;;;19.10;59.20;;;;;;6044378;23;20166;-83
2022/10/03 07:23:31;;;;;;;5.47;4.97;;;19.20;59.20;;;;;;6051866;23;20256;-83
2022/10/03 07:26:33;;;;;;;5.03;4.53;;;19.20;59.10;;;;;;6059394;23;20164;-83
2022/10/03 07:29:13;;;;;;;5.13;4.63;;;19.20;59.00;;;;;;6037906;23;20163;-82
2022/10/03 07:31:56;;;;;;;5.18;4.68;;;19.20;59.20;;;;;;6056331;23;20159;-84
2022/10/03 07:34:52;;;;;;;5.43;4.93;;;19.20;59.30;;;;;;6083009;23;20623;-83
2022/10/03 07:40:51;;;;;;;5.53;4.78;;;19.20;59.30;;;;;;6218374;23;20201;-84
2022/10/03 07:43:42;;;;;;;5.15;4.65;;;19.30;59.40;;;;;;6162103;23;20209;-83
2022/10/03 07:50:05;;;;;;;5.07;4.60;;;19.20;59.60;;;;;;6187847;23;20205;-84
2022/10/03 07:53:07;;;;;;;5.28;4.78;;;19.20;59.60;;;;;;6188535;23;20208;-83
2022/10/03 07:55:53;;;;;;;5.40;4.90;;;19.30;59.60;;;;;;6125925;23;20161;-83
2022/10/03 07:58:36;;;;;;;5.07;4.57;;;19.30;59.60;;;;;;6188752;23;20143;-83
2022/10/03 08:01:23;;;;;;;5.30;4.80;;;19.30;59.60;;;;;;6161847;23;20139;-83
2022/10/03 08:04:24;;;;;;;6.25;4.88;;;19.40;59.50;;;;;;6188851;23;20218;-83
2022/10/03 08:07:13;;;;;;;5.45;4.95;;;19.30;59.60;;;;;;6168639;23;20135;-83
2022/10/03 08:10:22;;;;;;;5.03;4.50;;;19.40;59.60;;;;;;6139187;23;20383;-83
2022/10/03 08:13:02;;;;;;;5.90;5.30;;;19.30;59.50;;;;;;6167560;23;20554;-84
2022/10/03 08:15:50;;;;;;;5.57;4.70;;;19.30;59.60;;;;;;6136025;23;20226;-83
2022/10/03 08:29:24;;;;;;;5.50;5.00;;;19.40;60.00;;;;;;6192928;23;20149;-84
2022/10/03 08:32:59;;;;;;;5.03;4.53;;;19.40;60.00;;;;;;6151146;23;20177;-83
2022/10/03 08:36:15;;;;;;;;;;;;;;;;;;;;;
2022/10/03 08:39:10;;;;;;;5.93;4.90;;;19.40;60.50;;;;;;5877858;24;20206;-82
2022/10/03 08:42:11;;;;;;;5.25;4.47;;;19.40;60.90;;;;;;5833336;24;20274;-83
2022/10/03 08:45:31;;;;;;;;;;;;;;;;;;;;;
2022/10/03 08:48:33;;;;;;;5.35;4.85;;;19.40;61.20;;;;;;5862406;24;20185;-84
2022/10/03 08:51:44;;;;;;;5.93;5.10;;;19.50;61.30;;;;;;5905611;24;20193;-83
2022/10/03 08:54:56;;;;;;;6.05;5.45;;;19.50;61.30;;;;;;5882951;24;20281;-84
2022/10/03 08:57:54;;;;;;;5.50;4.95;;;19.40;61.30;;;;;;5854084;24;20642;-83
2022/10/03 09:01:29;;;;;;;6.50;5.38;;;19.40;61.60;;;;;;5886433;24;20157;-82
2022/10/03 09:04:40;;;;;;;6.18;5.38;;;19.40;61.50;;;;;;5861193;24;20240;-83
2022/10/03 09:07:37;;;;;;;5.75;5.15;;;19.40;61.80;;;;;;5905398;24;20169;-84
2022/10/03 09:10:45;;;;;;;5.43;4.93;;;19.40;61.80;;;;;;5856462;24;20241;-83
2022/10/03 09:13:41;;;;;;;7.05;5.20;;;19.50;61.90;;;;;;5985810;23;20157;-83
2022/10/03 09:16:50;;;;;;;7.40;5.35;;;19.40;61.80;;;;;;6072981;23;20175;-83
2022/10/03 09:19:51;;;;;;;6.20;5.60;;;19.40;62.20;;;;;;6104440;23;20606;-84
2022/10/03 09:22:51;;;;;;;6.78;5.30;;;19.40;62.20;;;;;;6071330;23;20612;-83
2022/10/03 09:26:12;;;;;;;6.03;5.43;;;19.40;62.20;;;;;;6087474;23;20292;-83
2022/10/03 09:28:54;;;;;;;7.97;5.70;;;19.40;62.20;;;;;;6088405;23;20358;-84
2022/10/03 09:31:45;;;;;;;6.82;5.82;;;19.40;62.30;;;;;;6086157;23;20235;-84
2022/10/03 09:34:54;;;;;;;6.22;5.63;;;19.50;62.00;;;;;;6015654;23;20160;-84
2022/10/03 09:38:04;;;;;;;7.05;6.07;;;19.50;62.00;;;;;;6150282;23;20187;-83
2022/10/03 09:41:11;;;;;;;6.55;5.85;;;19.40;62.10;;;;;;6102039;23;20184;-84
2022/10/03 09:44:14;;;;;;;7.28;6.25;;;19.40;62.20;;;;;;6157002;23;20190;-84
2022/10/03 09:50:12;;;;;;;7.30;6.60;;;19.40;62.90;;;;;;6153983;23;20181;-84
2022/10/03 09:53:13;;;;;;;7.03;6.32;;;19.40;62.30;;;;;;6172793;23;20166;-84
2022/10/03 09:55:53;;;;;;;7.80;6.53;;;19.40;62.60;;;;;;6110397;23;20204;-84
2022/10/03 09:58:52;;;;;;;7.53;6.43;;;19.50;62.40;;;;;;6146638;23;20142;-84
2022/10/03 10:01:41;;;;;;;10.38;7.05;;;19.50;62.30;;;;;;6136388;23;20153;-83
2022/10/03 10:04:42;;;;;;;8.40;6.80;;;19.40;62.30;;;;;;6121305;23;20162;-84
2022/10/03 10:07:51;;;;;;;8.20;6.55;;;19.40;62.30;;;;;;6153691;22;20290;-83
2022/10/03 10:10:46;;;;;;;8.48;6.05;;;19.40;62.30;;;;;;6288013;22;20242;-83
2022/10/03 10:13:51;;;;;;;8.40;7.18;;;19.40;62.30;;;;;;6209253;22;20148;-84
2022/10/03 10:16:40;;;;;;;9.68;7.63;;;19.40;62.30;;;;;;6236724;22;20470;-83
2022/10/03 10:19:15;;;;;;;8.00;7.20;;;19.40;62.50;;;;;;6163392;22;20627;-82
2022/10/03 10:21:59;;;;;;;7.95;7.15;;;19.30;62.50;;;;;;6236646;22;20235;-84
2022/10/03 10:24:51;;;;;;;9.43;7.30;;;19.30;62.50;;;;;;6235220;22;20605;-83
2022/10/03 10:27:42;;;;;;;7.88;7.03;;;19.40;62.70;;;;;;6191342;22;20190;-85
2022/10/03 10:30:30;;;;;;;8.88;7.50;;;19.20;62.70;;;;;;6239609;22;20561;-83
2022/10/03 10:33:32;;;;;;;8.70;7.15;;;19.30;62.80;;;;;;6232830;22;20230;-84
2022/10/03 10:36:31;;;;;;;8.82;7.35;;;19.30;62.70;;;;;;6233695;22;20156;-85
2022/10/03 10:39:31;;;;;;;7.72;6.93;;;19.30;62.70;;;;;;6231503;22;20210;-86
2022/10/03 10:42:32;;;;;;;8.82;7.05;;;19.30;62.70;;;;;;6212739;22;20163;-84
2022/10/03 10:45:32;;;;;;;8.30;7.03;;;19.30;62.80;;;;;;6235635;22;20133;-85
2022/10/03 10:48:20;;;;;;;8.13;7.03;;;19.40;63.70;;;;;;6222957;23;20160;-84
2022/10/03 10:51:26;;;;;;;7.97;6.97;;;19.30;62.80;;;;;;6195508;23;20178;-83
2022/10/03 10:54:11;;;;;;;8.40;7.50;;;19.40;62.90;;;;;;6172287;23;20142;-84
2022/10/03 10:57:08;;;;;;;11.50;7.40;;;19.40;62.90;;;;;;6170308;23;20582;-84
2022/10/03 11:00:14;;;;;;;8.73;7.68;;;19.40;62.90;;;;;;6191601;23;20146;-83
2022/10/03 11:03:07;;;;;;;8.82;7.90;;;19.40;63.00;;;;;;6190934;23;20152;-83
2022/10/03 11:06:14;;;;;;;8.60;7.68;;;19.40;63.10;;;;;;6192984;23;20142;-83
2022/10/03 11:09:16;;;;;;;10.57;8.18;;;19.30;63.10;;;;;;6193474;23;20247;-83
2022/10/03 11:12:21;;;;;;;10.77;7.68;;;19.30;62.90;;;;;;6193204;23;20173;-83
2022/10/03 11:15:08;;;;;;;9.50;7.68;;;19.30;62.80;;;;;;6168114;23;20158;-84
2022/10/03 11:18:02;;;;;;;9.10;8.13;;;19.30;62.90;;;;;;6194888;23;20146;-84
2022/10/03 11:20:52;;;;;;;8.63;7.72;;;19.30;63.20;;;;;;6259009;22;20161;-84
2022/10/03 11:23:28;;;;;;;8.98;8.07;;;19.30;63.00;;;;;;6281679;22;20129;-83
2022/10/03 11:26:25;;;;;;;9.05;8.15;;;19.30;63.10;;;;;;6282934;22;20187;-84
2022/10/03 11:29:27;;;;;;;9.88;8.02;;;19.30;63.00;;;;;;6236549;22;20152;-84
2022/10/03 11:32:34;;;;;;;8.55;7.75;;;19.30;63.00;;;;;;6258637;22;20145;-84
2022/10/03 11:35:26;;;;;;;8.68;7.82;;;19.20;63.00;;;;;;6236014;22;20156;-85
2022/10/03 11:38:06;;;;;;;8.82;7.93;;;19.30;63.20;;;;;;6213810;22;20137;-84
2022/10/03 11:41:12;;;;;;;10.65;8.68;;;19.30;63.00;;;;;;6206841;22;20175;-83
2022/10/03 11:44:07;;;;;;;9.25;8.27;;;19.30;63.20;;;;;;6235948;22;20137;-85
2022/10/03 11:47:21;;;;;;;9.98;8.77;;;19.30;63.40;;;;;;6142021;22;20152;-86
2022/10/03 11:50:01;;;;;;;8.68;7.78;;;19.30;63.50;;;;;;6265391;22;20607;-86
2022/10/03 11:52:55;;;;;;;9.27;8.32;;;19.40;63.60;;;;;;6186438;22;20200;-86
2022/10/03 11:55:52;;;;;;;10.05;8.07;;;19.30;63.60;;;;;;6244441;22;20129;-85
2022/10/03 11:58:33;;;;;;;9.77;8.52;;;19.40;63.90;;;;;;6255550;22;20577;-83
2022/10/03 12:01:28;;;;;;;9.32;8.32;;;19.30;63.80;;;;;;6280054;22;20131;-84
2022/10/03 12:04:21;;;;;;;9.68;8.68;;;19.30;64.10;;;;;;6211161;22;20152;-85
2022/10/03 12:10:12;;;;;;;9.43;8.50;;;19.30;64.20;;;;;;6230482;23;20197;-84
2022/10/03 12:12:42;;;;;;;10.52;8.90;;;19.30;64.10;;;;;;6252588;23;20165;-85
2022/10/03 12:15:29;;;;;;;9.57;8.57;;;19.30;64.30;;;;;;6226778;23;20130;-85
2022/10/03 12:18:09;;;;;;;10.15;8.95;;;19.30;64.30;;;;;;6232687;23;20141;-85
2022/10/03 12:21:12;;;;;;;9.82;8.82;;;19.30;64.30;;;;;;6183855;23;20160;-86
2022/10/03 12:23:58;;;;;;;10.15;9.05;;;19.30;64.50;;;;;;6258231;22;20397;-85
2022/10/03 12:26:51;;;;;;;9.57;8.57;;;19.30;64.50;;;;;;6199428;23;20150;-85
2022/10/03 12:29:26;;;;;;;9.77;8.45;;;19.30;64.60;;;;;;6147191;23;20151;-84
2022/10/03 12:32:04;;;;;;;11.55;9.10;;;19.30;64.60;;;;;;6144534;23;20169;-85
2022/10/03 12:34:44;;;;;;;9.25;8.35;;;19.30;64.70;;;;;;6172194;23;20173;-84
2022/10/03 12:37:32;;;;;;;9.95;8.80;;;19.30;64.70;;;;;;6147883;23;20595;-86
2022/10/03 12:40:31;;;;;;;10.68;9.23;;;19.20;64.70;;;;;;6150253;23;20166;-85
2022/10/03 12:43:23;;;;;;;9.05;8.15;;;19.20;64.70;;;;;;6193586;23;20162;-84
2022/10/03 12:45:57;;;;;;;11.50;8.95;;;19.30;65.00;;;;;;6169124;23;20147;-85
2022/10/03 12:48:55;;;;;;;10.40;8.65;;;19.30;64.80;;;;;;6166983;23;20450;-83
2022/10/03 12:51:37;;;;;;;8.60;7.70;;;19.20;64.90;;;;;;6174271;23;20179;-86
2022/10/03 12:54:42;;;;;;;9.60;8.32;;;19.30;64.60;;;;;;6166158;23;20204;-84
2022/10/03 12:57:35;;;;;;;9.20;8.15;;;19.30;64.30;;;;;;6182007;23;20581;-84
2022/10/03 13:00:06;;;;;;;10.05;8.93;;;19.30;65.00;;;;;;6210462;23;20196;-84
2022/10/03 13:02:40;;;;;;;9.52;8.52;;;19.40;64.20;;;;;;6203277;23;20149;-84
2022/10/03 13:05:24;;;;;;;11.10;9.82;;;19.40;64.30;;;;;;6181782;23;20150;-84
2022/10/03 13:08:22;;;;;;;10.05;9.00;;;19.30;64.20;;;;;;6235680;22;20250;-84
2022/10/03 13:10:57;;;;;;;9.68;8.68;;;19.40;64.30;;;;;;6263280;22;20208;-84
2022/10/03 13:13:38;;;;;;;9.98;8.93;;;19.30;64.10;;;;;;6189423;22;20148;-84
2022/10/03 13:16:30;;;;;;;11.05;9.75;;;19.40;64.30;;;;;;6209851;23;20149;-84
2022/10/03 13:19:12;;;;;;;9.93;8.93;;;19.40;65.00;;;;;;6233810;23;20596;-84
2022/10/03 13:22:05;;;;;;;10.35;9.25;;;19.30;64.20;;;;;;6158207;23;20605;-84
2022/10/03 13:25:00;;;;;;;10.60;9.32;;;19.40;64.20;;;;;;6210621;23;20175;-84
2022/10/03 13:27:41;;;;;;;10.25;9.15;;;19.40;64.30;;;;;;6201601;23;20595;-84
2022/10/03 13:30:22;;;;;;;9.32;8.07;;;19.40;64.30;;;;;;6203126;23;20185;-82
2022/10/03 13:32:51;;;;;;;10.50;8.80;;;19.40;63.90;;;;;;6226253;23;20145;-83
2022/10/03 13:39:04;;;;;;;9.13;8.20;;;19.40;63.80;;;;;;6221748;23;20589;-84
2022/10/03 13:41:58;;;;;;;9.88;8.88;;;19.50;64.10;;;;;;6229562;23;20152;-85
2022/10/03 13:44:37;;;;;;;10.02;8.90;;;19.50;63.90;;;;;;6183908;23;20657;-84
2022/10/03 13:47:28;;;;;;;9.00;8.10;;;19.50;64.00;;;;;;6171976;22;20148;-84
2022/10/03 13:50:04;;;;;;;9.20;8.20;;;19.50;64.10;;;;;;6219455;22;20232;-84
2022/10/03 13:52:44;;;;;;;8.93;7.97;;;19.40;63.90;;;;;;6216421;22;20136;-84
2022/10/03 13:55:32;;;;;;;10.07;9.07;;;19.50;63.90;;;;;;6218786;22;20140;-84
2022/10/03 13:58:25;;;;;;;10.38;9.20;;;19.50;63.80;;;;;;6196668;22;20496;-84
2022/10/03 14:01:23;;;;;;;10.13;8.35;;;19.50;64.00;;;;;;6239413;22;20162;-84
2022/10/03 14:04:12;;;;;;;8.90;8.00;;;19.50;63.70;;;;;;6240535;22;20144;-83
2022/10/03 14:06:59;;;;;;;9.15;8.25;;;19.50;63.90;;;;;;6245110;22;20202;-85
2022/10/03 14:10:02;;;;;;;9.63;8.43;;;19.50;64.60;;;;;;6185305;23;20199;-85
2022/10/03 14:12:55;;;;;;;9.57;8.57;;;19.50;63.60;;;;;;6251842;23;20141;-83
2022/10/03 14:15:38;;;;;;;9.80;8.80;;;19.50;63.90;;;;;;6225306;23;20142;-86
2022/10/03 14:18:32;;;;;;;10.18;8.55;;;19.50;64.00;;;;;;6251722;23;20573;-83
2022/10/03 14:21:35;;;;;;;9.60;8.60;;;19.50;63.60;;;;;;6148092;23;20241;-84
2022/10/03 14:24:43;;;;;;;9.65;8.63;;;19.50;64.00;;;;;;6174203;23;20160;-83
2022/10/03 14:27:42;;;;;;;10.30;8.43;;;19.50;63.70;;;;;;6128455;23;20239;-82
2022/10/03 14:30:27;;;;;;;8.88;7.97;;;19.50;63.70;;;;;;6103707;23;20518;-81
2022/10/03 14:33:23;;;;;;;9.30;7.97;;;19.50;63.60;;;;;;6138642;23;20154;-82
2022/10/03 14:36:07;;;;;;;10.63;9.52;;;19.60;64.00;;;;;;6131741;23;20178;-83
2022/10/03 14:39:01;;;;;;;9.32;8.27;;;19.50;63.90;;;;;;6107425;23;20219;-84
2022/10/03 14:41:48;;;;;;;10.60;8.65;;;19.50;63.80;;;;;;6116286;23;20163;-85
2022/10/03 14:44:21;;;;;;;9.13;8.23;;;19.60;63.90;;;;;;6134788;23;20159;-84
2022/10/03 14:46:55;;;;;;;8.63;7.72;;;19.60;63.70;;;;;;6169129;23;20157;-84
2022/10/03 14:49:27;;;;;;;8.95;7.90;;;19.60;63.80;;;;;;6198063;23;20196;-84
2022/10/03 14:52:07;;;;;;;8.57;7.53;;;19.60;63.70;;;;;;6172989;23;20189;-85
2022/10/03 14:54:41;;;;;;;8.52;7.68;;;19.60;63.30;;;;;;6199285;23;20261;-84
2022/10/03 14:57:31;;;;;;;9.05;8.15;;;19.60;63.20;;;;;;6179201;23;20145;-85
2022/10/03 15:00:04;;;;;;;9.60;8.25;;;19.60;63.50;;;;;;6206158;23;20151;-85
2022/10/03 15:02:53;;;;;;;9.18;7.68;;;19.60;63.40;;;;;;6208363;23;20153;-85
2022/10/03 15:05:48;;;;;;;8.45;7.55;;;19.60;63.20;;;;;;6124544;23;20265;-85
2022/10/03 15:08:16;;;;;;;8.35;7.45;;;19.50;63.10;;;;;;6094099;23;20199;-84
2022/10/03 15:10:52;;;;;;;8.60;7.53;;;19.60;63.00;;;;;;6118542;23;20250;-85
2022/10/03 15:13:30;;;;;;;7.35;6.60;;;19.60;63.20;;;;;;6147087;23;20131;-85
2022/10/03 15:16:42;;;;;;;8.80;7.78;;;19.60;62.70;;;;;;6121965;23;20251;-85
2022/10/03 15:18:55;;;;;;;9.80;8.52;;;19.60;63.20;;;;;;6125237;23;20151;-85
2022/10/03 15:21:27;;;;;;;8.55;7.65;;;19.60;63.20;;;;;;6083111;23;20168;-85
2022/10/03 15:24:22;;;;;;;10.07;7.70;;;19.60;62.90;;;;;;6084396;23;20160;-85
2022/10/03 15:27:01;;;;;;;8.85;7.72;;;19.70;63.30;;;;;;6046692;23;20180;-83
2022/10/03 15:29:34;;;;;;;9.20;7.97;;;19.70;63.30;;;;;;6028661;23;20157;-84
2022/10/03 15:32:08;;;;;;;9.10;7.30;;;19.70;63.20;;;;;;6006602;23;20172;-82
2022/10/03 15:34:50;;;;;;;8.90;8.00;;;19.70;63.00;;;;;;6005008;23;20156;-83
2022/10/03 15:37:24;;;;;;;8.63;7.72;;;19.70;63.10;;;;;;6038404;23;20159;-83
2022/10/03 15:39:58;;;;;;;9.73;7.65;;;19.70;63.20;;;;;;6057909;23;20231;-86
2022/10/03 15:42:49;;;;;;;8.20;7.18;;;19.70;63.40;;;;;;6062410;23;20152;-84
2022/10/03 15:45:28;;;;;;;9.82;6.95;;;19.70;63.20;;;;;;6063592;23;20160;-86
2022/10/03 15:48:04;;;;;;;8.05;7.15;;;19.70;63.40;;;;;;6061019;23;20160;-85
2022/10/03 15:50:57;;;;;;;8.38;7.00;;;19.80;63.20;;;;;;6045871;23;20183;-85
2022/10/03 15:53:48;;;;;;;7.32;6.63;;;19.80;63.20;;;;;;6109653;23;20180;-84
2022/10/03 15:57:04;;;;;;;7.82;7.03;;;19.70;63.90;;;;;;6089438;23;20152;-84
2022/10/03 15:59:48;;;;;;;7.00;6.18;;;19.80;62.70;;;;;;6103528;23;20163;-84